createdAt,value
2022-09-22T00:00:44.312Z,101316.91
2022-09-22T00:06:09.454Z,101310.91
2022-09-22T00:11:18.953Z,101303.97
2022-09-22T00:16:28.576Z,101312.81
2022-09-22T00:21:34.673Z,101304.19
2022-09-22T00:26:42.239Z,101302.41
2022-09-22T00:31:48.445Z,101303.41
2022-09-22T00:36:54.688Z,101299.94
2022-09-22T00:42:01.973Z,101300.97
2022-09-22T00:47:26.311Z,101301.06
2022-09-22T00:53:28.005Z,101300.28
2022-09-22T00:58:42.383Z,101295.97
2022-09-22T01:03:49.330Z,101295.16
2022-09-22T01:08:57.186Z,101293.41
2022-09-22T01:14:18.379Z,101294.19
2022-09-22T01:20:23.977Z,101297.63
2022-09-22T01:26:02.166Z,101293.31
2022-09-22T01:31:17.743Z,101302.06
2022-09-22T01:36:33.029Z,101300.88
2022-09-22T01:41:52.891Z,101308.69
2022-09-22T01:47:06.818Z,101310.41
2022-09-22T01:52:21.129Z,101307.69
2022-09-22T01:57:36.603Z,101308.53
2022-09-22T02:02:51.876Z,101318.06
2022-09-22T02:08:01.399Z,101316.53
2022-09-22T02:13:07.589Z,101320.75
2022-09-22T02:18:20.438Z,101317.22
2022-09-22T02:23:26.612Z,101311.19
2022-09-22T02:28:38.117Z,101309.41
2022-09-22T02:33:45.675Z,101302.50
2022-09-22T02:39:00.310Z,101307.72
2022-09-22T02:44:14.194Z,101307.75
2022-09-22T02:49:23.159Z,101309.50
2022-09-22T02:54:29.182Z,101314.75
2022-09-22T02:59:35.573Z,101309.59
2022-09-22T03:04:42.939Z,101307.81
2022-09-22T03:09:49.153Z,101309.59
2022-09-22T03:14:55.466Z,101312.19
2022-09-22T03:20:03.310Z,101313.00
2022-09-22T03:25:11.262Z,101308.72
2022-09-22T03:30:17.661Z,101312.16
2022-09-22T03:35:25.189Z,101312.16
2022-09-22T03:40:31.230Z,101318.47
2022-09-22T03:45:37.292Z,101330.56
2022-09-22T03:50:44.916Z,101321.78
2022-09-22T03:55:51.071Z,101310.44
2022-09-22T04:00:58.594Z,101315.63
2022-09-22T04:06:07.188Z,101326.94
2022-09-22T04:11:13.265Z,101326.13
2022-09-22T04:16:19.619Z,101320.13
2022-09-22T04:21:27.022Z,101326.13
2022-09-22T04:26:32.986Z,101325.28
2022-09-22T04:31:39.295Z,101323.56
2022-09-22T04:36:46.647Z,101325.28
2022-09-22T04:41:52.693Z,101326.09
2022-09-22T04:46:58.648Z,101324.41
2022-09-22T04:52:08.048Z,101326.97
2022-09-22T04:57:18.337Z,101334.84
2022-09-22T05:02:26.508Z,101340.03
2022-09-22T05:07:34.133Z,101334.75
2022-09-22T05:12:42.119Z,101333.88
2022-09-22T05:17:49.871Z,101335.59
2022-09-22T05:22:57.267Z,101338.22
2022-09-22T05:28:03.585Z,101337.34
2022-09-22T05:33:09.577Z,101341.63
2022-09-22T05:38:16.883Z,101344.19
2022-09-22T05:43:22.827Z,101343.31
2022-09-22T05:48:31.222Z,101354.59
2022-09-22T05:53:39.186Z,101348.47
2022-09-22T05:58:45.399Z,101346.69
2022-09-22T06:03:51.798Z,101343.19
2022-09-22T06:08:59.310Z,101347.44
2022-09-22T06:14:05.154Z,101356.97
2022-09-22T06:19:11.157Z,101359.53
2022-09-22T06:24:18.687Z,101357.75
2022-09-22T06:29:24.828Z,101365.47
2022-09-22T06:34:30.938Z,101364.56
2022-09-22T06:39:38.766Z,101355.84
2022-09-22T06:44:44.830Z,101352.34
2022-09-22T06:49:51.100Z,101345.31
2022-09-22T06:55:01.452Z,101356.59
2022-09-22T07:00:10.004Z,101353.03
2022-09-22T07:05:18.948Z,101354.72
2022-09-22T07:10:26.714Z,101361.66
2022-09-22T07:15:33.308Z,101370.25
2022-09-22T07:20:39.325Z,101374.53
2022-09-22T07:25:56.749Z,101374.50
2022-09-22T07:31:06.381Z,101373.56
2022-09-22T07:36:16.086Z,101380.44
2022-09-22T07:41:25.300Z,101383.03
2022-09-22T07:46:31.365Z,101376.00
2022-09-22T07:51:38.947Z,101368.97
2022-09-22T07:56:47.455Z,101367.97
2022-09-22T08:01:54.509Z,101363.47
2022-09-22T08:07:00.612Z,101357.22
2022-09-22T08:12:10.855Z,101357.97
2022-09-22T08:17:17.480Z,101353.44
2022-09-22T08:22:24.002Z,101363.75
2022-09-22T08:27:31.569Z,101362.63
2022-09-22T08:32:37.931Z,101359.97
2022-09-22T08:37:44.796Z,101364.06
2022-09-22T08:42:55.883Z,101371.78
2022-09-22T08:48:26.639Z,101379.47
2022-09-22T08:53:36.906Z,101370.69
2022-09-22T08:58:55.548Z,101368.16
2022-09-22T09:04:11.582Z,101354.19
2022-09-22T09:09:44.318Z,101360.31
2022-09-22T09:15:21.143Z,101350.72
2022-09-22T09:20:39.176Z,101347.03
2022-09-22T09:25:46.705Z,101352.94
2022-09-22T09:30:57.929Z,101346.72
2022-09-22T09:36:04.334Z,101348.09
2022-09-22T09:41:18.264Z,101338.19
2022-09-22T09:46:41.138Z,101333.97
2022-09-22T09:51:51.448Z,101326.06
2022-09-22T09:57:13.901Z,101329.56
2022-09-22T10:02:27.771Z,101334.56
2022-09-22T10:07:45.189Z,101327.78
2022-09-22T10:12:51.780Z,101332.25
2022-09-22T10:17:59.496Z,101331.69
2022-09-22T10:23:22.809Z,101335.56
2022-09-22T10:28:28.749Z,101335.69
2022-09-22T10:33:40.492Z,101343.50
2022-09-22T10:38:51.654Z,101334.75
2022-09-22T10:44:06.412Z,101346.19
2022-09-22T10:49:31.991Z,101341.94
2022-09-22T10:55:10.756Z,101330.69
2022-09-22T11:00:19.455Z,101327.31
2022-09-22T11:06:01.703Z,101323.88
2022-09-22T11:11:33.636Z,101320.25
2022-09-22T11:17:16.267Z,101311.31
2022-09-22T11:22:44.064Z,101313.88
2022-09-22T11:28:09.378Z,101320.88
2022-09-22T11:34:09.512Z,101320.09
2022-09-22T11:39:44.074Z,101324.41
2022-09-22T11:45:09.192Z,101320.94
2022-09-22T11:50:36.492Z,101321.72
2022-09-22T11:55:53.124Z,101310.22
2022-09-22T12:01:10.917Z,101313.66
2022-09-22T12:06:24.928Z,101310.00
2022-09-22T12:11:36.630Z,101306.25
2022-09-22T12:16:49.299Z,101299.22
2022-09-22T12:22:07.733Z,101301.75
2022-09-22T12:27:23.421Z,101302.69
2022-09-22T12:32:38.284Z,101305.34
2022-09-22T12:37:44.797Z,101300.22
2022-09-22T12:42:54.610Z,101297.59
2022-09-22T12:48:06.002Z,101298.44
2022-09-22T12:53:28.234Z,101300.97
2022-09-22T12:58:48.131Z,101302.59
2022-09-22T13:04:04.666Z,101307.78
2022-09-22T13:09:21.939Z,101292.03
2022-09-22T13:15:21.393Z,101295.50
2022-09-22T13:20:33.927Z,101292.03
2022-09-22T13:25:42.799Z,101284.25
2022-09-22T13:31:04.949Z,101281.78
2022-09-22T13:36:17.200Z,101280.81
2022-09-22T13:41:26.601Z,101277.34
2022-09-22T13:46:41.326Z,101283.31
2022-09-22T13:51:55.928Z,101283.38
2022-09-22T13:57:09.399Z,101285.94
2022-09-22T14:02:28.201Z,101276.28
2022-09-22T14:07:55.172Z,101275.94
2022-09-22T14:13:05.270Z,101276.00
2022-09-22T14:18:21.121Z,101268.34
2022-09-22T14:23:32.215Z,101267.41
2022-09-22T14:28:42.985Z,101263.72
2022-09-22T14:33:50.714Z,101248.63
2022-09-22T14:39:10.176Z,101249.56
2022-09-22T14:44:39.780Z,101255.81
2022-09-22T14:49:49.265Z,101245.56
2022-09-22T14:54:58.140Z,101248.31
2022-09-22T15:00:22.396Z,101245.81
2022-09-22T15:05:34.517Z,101259.09
2022-09-22T15:10:41.156Z,101258.34
2022-09-22T15:15:49.199Z,101255.78
2022-09-22T15:21:00.073Z,101250.59
2022-09-22T15:26:07.062Z,101253.31
2022-09-22T15:31:22.631Z,101256.06
2022-09-22T15:36:32.345Z,101262.28
2022-09-22T15:41:38.898Z,101256.28
2022-09-22T15:46:50.624Z,101260.94
2022-09-22T15:51:58.552Z,101262.69
2022-09-22T15:57:08.138Z,101258.47
2022-09-22T16:02:17.612Z,101275.31
2022-09-22T16:07:25.270Z,101273.69
2022-09-22T16:12:32.005Z,101280.88
2022-09-22T16:17:38.619Z,101282.88
2022-09-22T16:22:46.892Z,101289.94
2022-09-22T16:27:52.967Z,101291.00
2022-09-22T16:32:59.776Z,101299.88
2022-09-22T16:38:07.221Z,101291.16
2022-09-22T16:43:13.519Z,101299.13
2022-09-22T16:48:19.583Z,101302.72
2022-09-22T16:53:27.219Z,101292.38
2022-09-22T16:58:34.015Z,101297.72
2022-09-22T17:03:41.512Z,101301.19
2022-09-22T17:08:48.951Z,101289.09
2022-09-22T17:13:55.973Z,101290.06
2022-09-22T17:19:05.057Z,101288.38
2022-09-22T17:24:13.374Z,101295.44
2022-09-22T17:29:25.327Z,101300.78
2022-09-22T17:34:34.409Z,101307.88
2022-09-22T17:39:43.842Z,101300.19
2022-09-22T17:44:49.931Z,101302.81
2022-09-22T17:50:13.091Z,101304.56
2022-09-22T17:55:25.688Z,101314.19
2022-09-22T18:00:34.068Z,101322.94
2022-09-22T18:05:41.451Z,101323.03
2022-09-22T18:10:49.423Z,101326.59
2022-09-22T18:15:55.743Z,101330.97
2022-09-22T18:21:06.462Z,101338.97
2022-09-22T18:26:14.535Z,101326.69
2022-09-22T18:31:20.553Z,101339.72
2022-09-22T18:36:27.196Z,101330.22
2022-09-22T18:41:35.822Z,101330.22
2022-09-22T18:46:48.920Z,101329.47
2022-09-22T18:51:59.095Z,101335.63
2022-09-22T18:57:12.677Z,101335.69
2022-09-22T19:02:23.213Z,101333.16
2022-09-22T19:07:42.990Z,101337.63
2022-09-22T19:12:51.259Z,101333.25
2022-09-22T19:17:58.771Z,101335.03
2022-09-22T19:23:07.494Z,101334.13
2022-09-22T19:28:16.385Z,101337.66
2022-09-22T19:33:25.005Z,101335.09
2022-09-22T19:38:32.314Z,101335.50
2022-09-22T19:43:39.992Z,101344.28
2022-09-22T19:48:46.548Z,101348.84
2022-09-22T19:53:57.272Z,101347.91
2022-09-22T19:59:07.492Z,101343.50
2022-09-22T20:04:18.125Z,101341.88
2022-09-22T20:09:24.069Z,101341.88
2022-09-22T20:14:32.309Z,101340.19
2022-09-22T20:19:39.957Z,101337.66
2022-09-22T20:24:54.246Z,101338.63
2022-09-22T20:30:02.958Z,101334.47
2022-09-22T20:35:12.162Z,101341.38
2022-09-22T20:40:23.364Z,101339.81
2022-09-22T20:45:30.814Z,101336.38
2022-09-22T20:50:36.774Z,101331.13
2022-09-22T20:55:42.965Z,101337.56
2022-09-22T21:00:51.903Z,101334.31
2022-09-22T21:06:01.813Z,101331.63
2022-09-22T21:11:14.296Z,101332.47
2022-09-22T21:16:22.063Z,101331.69
2022-09-22T21:21:28.545Z,101332.59
2022-09-22T21:26:35.333Z,101331.84
2022-09-22T21:31:42.898Z,101331.97
2022-09-22T21:36:49.261Z,101332.91
2022-09-22T21:41:55.294Z,101329.41
2022-09-22T21:47:02.769Z,101335.38
2022-09-22T21:52:08.758Z,101334.69
2022-09-22T21:57:14.741Z,101331.19
2022-09-22T22:02:22.201Z,101326.09
2022-09-22T22:07:28.250Z,101331.47
2022-09-22T22:12:34.905Z,101328.78
2022-09-22T22:17:42.314Z,101330.59
2022-09-22T22:22:48.226Z,101324.03
2022-09-22T22:27:57.094Z,101320.50
2022-09-22T22:33:04.286Z,101316.16
2022-09-22T22:38:11.043Z,101313.59
2022-09-22T22:43:18.231Z,101311.91
2022-09-22T22:48:26.446Z,101307.59
2022-09-22T22:53:32.222Z,101310.09
2022-09-22T22:58:39.415Z,101300.50
2022-09-22T23:03:49.542Z,101299.66
2022-09-22T23:08:56.409Z,101302.16
2022-09-22T23:14:03.494Z,101303.00
2022-09-22T23:19:14.164Z,101295.94
2022-09-22T23:24:20.187Z,101291.53
2022-09-22T23:29:26.120Z,101282.81
2022-09-22T23:34:33.714Z,101286.22
2022-09-22T23:39:39.405Z,101284.44
2022-09-22T23:44:45.136Z,101279.19
2022-09-22T23:49:52.285Z,101284.38
2022-09-22T23:54:57.997Z,101280.00
